createdAt,value
2022-10-18T00:00:02.613Z,10.40
2022-10-18T00:03:44.544Z,10.40
2022-10-18T00:07:26.469Z,10.30
2022-10-18T00:11:08.800Z,10.30
2022-10-18T00:14:51.483Z,10.20
2022-10-18T00:18:33.562Z,10.30
2022-10-18T00:22:15.546Z,10.20
2022-10-18T00:26:22.952Z,10.20
2022-10-18T00:30:05.745Z,10.10
2022-10-18T00:33:51.272Z,10.10
2022-10-18T00:37:34.154Z,10.00
2022-10-18T00:41:23.844Z,10.00
2022-10-18T00:45:26.490Z,10.00
2022-10-18T00:49:23.514Z,10.00
2022-10-18T00:53:09.460Z,9.90
2022-10-18T00:56:51.616Z,9.80
2022-10-18T01:00:34.923Z,9.80
2022-10-18T01:04:18.686Z,9.80
2022-10-18T01:08:31.832Z,9.80
2022-10-18T01:12:13.703Z,9.80
2022-10-18T01:16:07.190Z,9.80
2022-10-18T01:20:30.351Z,9.80
2022-10-18T01:24:21.253Z,9.70
2022-10-18T01:28:40.025Z,9.70
2022-10-18T01:32:29.107Z,9.70
2022-10-18T01:36:36.230Z,9.60
2022-10-18T01:40:19.355Z,9.70
2022-10-18T01:44:04.519Z,9.80
2022-10-18T01:47:47.835Z,9.90
2022-10-18T01:51:32.077Z,10.00
2022-10-18T01:55:14.214Z,10.00
2022-10-18T01:59:14.813Z,10.00
2022-10-18T02:03:07.819Z,10.10
2022-10-18T02:06:57.718Z,10.10
2022-10-18T02:10:44.984Z,10.20
2022-10-18T02:14:27.842Z,10.10
2022-10-18T02:18:21.524Z,10.20
2022-10-18T02:22:04.877Z,10.10
2022-10-18T02:25:47.068Z,10.10
2022-10-18T02:29:30.034Z,10.10
2022-10-18T02:33:21.875Z,10.20
2022-10-18T02:37:04.583Z,10.20
2022-10-18T02:40:46.494Z,10.20
2022-10-18T02:44:28.477Z,10.20
2022-10-18T02:48:10.616Z,10.20
2022-10-18T02:51:52.553Z,10.20
2022-10-18T02:55:34.391Z,10.20
2022-10-18T02:59:16.720Z,10.20
2022-10-18T03:02:58.797Z,10.10
2022-10-18T03:06:40.773Z,10.10
2022-10-18T03:10:22.657Z,10.10
2022-10-18T03:14:04.489Z,10.10
2022-10-18T03:17:46.294Z,10.00
2022-10-18T03:21:28.383Z,10.00
2022-10-18T03:25:10.262Z,10.00
2022-10-18T03:28:52.250Z,10.00
2022-10-18T03:32:34.495Z,10.00
2022-10-18T03:36:17.019Z,10.00
2022-10-18T03:39:58.876Z,10.00
2022-10-18T03:43:40.842Z,10.00
2022-10-18T03:47:22.697Z,10.00
2022-10-18T03:51:04.876Z,10.00
2022-10-18T03:54:46.824Z,10.00
2022-10-18T03:58:29.001Z,9.90
2022-10-18T04:02:10.991Z,10.00
2022-10-18T04:05:52.983Z,10.00
2022-10-18T04:09:34.849Z,10.00
2022-10-18T04:13:16.790Z,10.00
2022-10-18T04:16:58.836Z,10.00
2022-10-18T04:20:40.658Z,10.00
2022-10-18T04:24:22.660Z,10.00
2022-10-18T04:28:04.851Z,10.00
2022-10-18T04:31:46.778Z,10.00
2022-10-18T04:35:28.875Z,10.00
2022-10-18T04:39:10.756Z,10.00
2022-10-18T04:42:52.679Z,10.00
2022-10-18T04:46:35.606Z,10.00
2022-10-18T04:50:17.645Z,9.90
2022-10-18T04:54:01.524Z,10.00
2022-10-18T04:57:43.500Z,9.90
2022-10-18T05:01:25.768Z,9.90
2022-10-18T05:05:10.375Z,9.90
2022-10-18T05:08:55.317Z,9.90
2022-10-18T05:12:37.190Z,9.90
2022-10-18T05:16:19.296Z,10.00
2022-10-18T05:20:01.256Z,10.00
2022-10-18T05:23:43.174Z,10.00
2022-10-18T05:27:25.158Z,9.90
2022-10-18T05:31:09.225Z,9.90
2022-10-18T05:34:51.133Z,9.90
2022-10-18T05:38:33.375Z,9.90
2022-10-18T05:42:15.417Z,9.90
2022-10-18T05:45:57.311Z,9.80
2022-10-18T05:49:39.168Z,9.80
2022-10-18T05:53:37.552Z,9.70
2022-10-18T05:57:20.072Z,9.80
2022-10-18T06:01:03.370Z,9.70
2022-10-18T06:04:45.450Z,9.60
2022-10-18T06:08:27.685Z,9.60
2022-10-18T06:12:09.736Z,9.50
2022-10-18T06:15:57.433Z,9.50
2022-10-18T06:19:39.317Z,9.50
2022-10-18T06:23:21.473Z,9.50
2022-10-18T06:27:09.652Z,9.50
2022-10-18T06:30:51.541Z,9.50
2022-10-18T06:34:33.952Z,9.50
2022-10-18T06:38:15.934Z,9.50
2022-10-18T06:41:57.809Z,9.40
2022-10-18T06:45:44.413Z,9.40
2022-10-18T06:49:26.408Z,9.40
2022-10-18T06:53:09.204Z,9.40
2022-10-18T06:56:51.089Z,9.40
2022-10-18T07:00:33.073Z,9.30
2022-10-18T07:04:14.960Z,9.40
2022-10-18T07:07:56.948Z,9.40
2022-10-18T07:11:38.866Z,9.40
2022-10-18T07:15:22.788Z,9.40
2022-10-18T07:19:04.808Z,9.40
2022-10-18T07:22:46.812Z,9.40
2022-10-18T07:26:33.439Z,9.50
2022-10-18T07:30:15.392Z,9.50
2022-10-18T07:33:57.450Z,9.50
2022-10-18T07:37:39.396Z,9.50
2022-10-18T07:41:22.166Z,9.60
2022-10-18T07:45:04.820Z,9.60
2022-10-18T07:48:46.897Z,9.70
2022-10-18T07:52:28.889Z,9.80
2022-10-18T07:56:16.842Z,9.90
2022-10-18T07:59:59.065Z,10.00
2022-10-18T08:03:41.915Z,10.10
2022-10-18T08:07:23.920Z,10.20
2022-10-18T08:11:25.597Z,10.30
2022-10-18T08:15:08.208Z,10.30
2022-10-18T08:18:50.562Z,10.40
2022-10-18T08:22:32.789Z,10.50
2022-10-18T08:26:17.938Z,10.60
2022-10-18T08:30:02.112Z,10.70
2022-10-18T08:33:44.755Z,10.90
2022-10-18T08:37:26.729Z,11.10
2022-10-18T08:41:36.980Z,11.20
2022-10-18T08:45:37.500Z,11.40
2022-10-18T08:49:29.834Z,11.50
2022-10-18T08:53:28.679Z,11.60
2022-10-18T08:57:18.514Z,11.70
2022-10-18T09:01:09.780Z,11.90
2022-10-18T09:05:03.487Z,12.10
2022-10-18T09:09:03.991Z,12.30
2022-10-18T09:12:51.676Z,12.50
2022-10-18T09:16:59.719Z,12.70
2022-10-18T09:20:51.427Z,13.00
2022-10-18T09:24:56.862Z,13.20
2022-10-18T09:28:51.923Z,13.40
2022-10-18T09:33:10.702Z,13.60
2022-10-18T09:36:53.794Z,13.80
2022-10-18T09:40:43.537Z,14.00
2022-10-18T09:44:52.437Z,14.40
2022-10-18T09:48:58.206Z,15.00
2022-10-18T09:52:49.700Z,15.70
2022-10-18T09:56:48.384Z,16.10
2022-10-18T10:00:39.035Z,16.40
2022-10-18T10:04:20.934Z,16.50
2022-10-18T10:08:03.221Z,16.80
2022-10-18T10:11:50.457Z,17.30
2022-10-18T10:15:37.170Z,18.10
2022-10-18T10:19:41.075Z,18.20
2022-10-18T10:23:28.402Z,18.20
2022-10-18T10:27:43.866Z,18.00
2022-10-18T10:31:29.621Z,18.00
2022-10-18T10:35:52.465Z,18.30
2022-10-18T10:39:35.014Z,18.50
2022-10-18T10:43:39.758Z,19.00
2022-10-18T10:47:37.122Z,19.70
2022-10-18T10:51:33.492Z,20.40
2022-10-18T10:55:35.290Z,21.10
2022-10-18T10:59:20.519Z,22.10
2022-10-18T11:03:29.167Z,23.10
2022-10-18T11:07:25.580Z,24.00
2022-10-18T11:11:32.962Z,25.00
2022-10-18T11:15:44.826Z,25.80
2022-10-18T11:19:39.255Z,26.60
2022-10-18T11:23:21.602Z,27.20
2022-10-18T11:27:34.427Z,27.60
2022-10-18T11:31:37.618Z,28.10
2022-10-18T11:35:28.562Z,28.60
2022-10-18T11:39:36.756Z,28.80
2022-10-18T11:44:01.301Z,29.10
2022-10-18T11:48:08.906Z,29.50
2022-10-18T11:52:09.554Z,30.00
2022-10-18T11:56:30.994Z,30.40
2022-10-18T12:00:39.665Z,30.80
2022-10-18T12:04:26.081Z,31.20
2022-10-18T12:08:33.752Z,31.60
2022-10-18T12:12:26.572Z,31.60
2022-10-18T12:16:11.176Z,31.80
2022-10-18T12:19:55.915Z,31.90
2022-10-18T12:24:10.028Z,32.00
2022-10-18T12:28:19.935Z,32.00
2022-10-18T12:32:03.376Z,31.70
2022-10-18T12:36:26.860Z,31.60
2022-10-18T12:40:46.171Z,31.40
2022-10-18T12:44:32.450Z,31.00
2022-10-18T12:48:28.892Z,30.90
2022-10-18T12:52:24.904Z,31.00
2022-10-18T12:56:28.618Z,31.00
2022-10-18T13:00:30.621Z,30.60
2022-10-18T13:04:34.008Z,30.40
2022-10-18T13:08:29.023Z,30.30
2022-10-18T13:12:10.898Z,30.30
2022-10-18T13:16:09.869Z,30.30
2022-10-18T13:20:25.078Z,30.00
2022-10-18T13:24:33.443Z,29.10
2022-10-18T13:28:37.756Z,29.40
2022-10-18T13:32:28.271Z,30.00
2022-10-18T13:36:22.838Z,30.60
2022-10-18T13:40:25.615Z,30.60
2022-10-18T13:44:37.762Z,30.20
2022-10-18T13:48:49.715Z,30.40
2022-10-18T13:52:32.051Z,30.30
2022-10-18T13:56:20.421Z,29.80
2022-10-18T14:00:35.495Z,29.00
2022-10-18T14:04:34.976Z,28.30
2022-10-18T14:08:44.717Z,28.20
2022-10-18T14:12:44.135Z,28.80
2022-10-18T14:16:56.796Z,28.60
2022-10-18T14:21:12.286Z,28.30
2022-10-18T14:24:57.387Z,27.10
2022-10-18T14:28:58.590Z,25.70
2022-10-18T14:32:57.251Z,24.50
2022-10-18T14:36:46.198Z,23.50
2022-10-18T14:40:28.298Z,22.80
2022-10-18T14:44:26.899Z,22.30
2022-10-18T14:48:25.616Z,22.10
2022-10-18T14:52:14.404Z,21.80
2022-10-18T14:56:22.083Z,21.60
2022-10-18T15:00:26.804Z,21.50
2022-10-18T15:04:12.592Z,21.30
2022-10-18T15:08:00.007Z,21.10
2022-10-18T15:15:43.837Z,20.70
2022-10-18T15:19:45.484Z,20.50
2022-10-18T15:23:31.386Z,20.30
2022-10-18T15:27:25.199Z,20.10
2022-10-18T15:31:23.848Z,20.00
2022-10-18T15:35:37.846Z,19.80
2022-10-18T15:39:32.798Z,19.70
2022-10-18T15:43:28.644Z,19.60
2022-10-18T15:47:23.926Z,19.50
2022-10-18T15:51:14.271Z,19.30
2022-10-18T15:54:59.837Z,19.20
2022-10-18T15:58:53.297Z,19.10
2022-10-18T16:02:35.446Z,19.00
2022-10-18T16:06:18.983Z,19.00
2022-10-18T16:10:07.017Z,18.90
2022-10-18T16:14:00.548Z,18.90
2022-10-18T16:17:50.819Z,18.80
2022-10-18T16:21:40.487Z,18.60
2022-10-18T16:25:52.277Z,18.60
2022-10-18T16:29:38.831Z,18.50
2022-10-18T16:33:31.180Z,18.40
2022-10-18T16:37:16.147Z,18.30
2022-10-18T16:41:02.770Z,18.20
2022-10-18T16:44:45.944Z,18.10
2022-10-18T16:48:51.623Z,18.00
2022-10-18T16:52:49.341Z,17.90
2022-10-18T16:56:34.517Z,17.80
2022-10-18T17:00:24.124Z,17.80
2022-10-18T17:04:06.210Z,17.70
2022-10-18T17:07:49.910Z,17.60
2022-10-18T17:11:38.086Z,17.60
2022-10-18T17:15:29.459Z,17.50
2022-10-18T17:19:16.137Z,17.50
2022-10-18T17:22:58.076Z,17.50
2022-10-18T17:26:51.082Z,17.50
2022-10-18T17:30:56.495Z,17.30
2022-10-18T17:38:30.519Z,17.30
2022-10-18T17:42:16.220Z,17.20
2022-10-18T17:46:02.202Z,17.20
2022-10-18T17:49:46.098Z,17.10
2022-10-18T17:53:34.232Z,17.10
2022-10-18T17:57:16.827Z,17.10
2022-10-18T18:01:08.545Z,17.00
2022-10-18T18:04:54.967Z,16.90
2022-10-18T18:08:38.937Z,17.00
2022-10-18T18:13:01.010Z,17.00
2022-10-18T18:16:54.539Z,16.90
2022-10-18T18:20:38.695Z,16.90
2022-10-18T18:24:39.501Z,17.00
2022-10-18T18:28:30.072Z,16.90
2022-10-18T18:32:16.809Z,17.00
2022-10-18T18:35:59.509Z,16.90
2022-10-18T18:39:56.568Z,16.90
2022-10-18T18:48:08.189Z,16.80
2022-10-18T18:52:00.610Z,16.70
2022-10-18T18:56:03.441Z,16.60
2022-10-18T19:00:05.058Z,16.50
2022-10-18T19:03:53.636Z,16.50
2022-10-18T19:07:38.923Z,16.40
2022-10-18T19:11:24.880Z,16.40
2022-10-18T19:15:22.775Z,16.30
2022-10-18T19:23:28.492Z,16.20
2022-10-18T19:27:15.041Z,16.10
2022-10-18T19:31:01.107Z,16.10
2022-10-18T19:34:44.610Z,16.00
2022-10-18T19:38:31.018Z,16.00
2022-10-18T19:42:31.652Z,16.00
2022-10-18T19:46:44.513Z,16.00
2022-10-18T19:54:14.480Z,16.00
2022-10-18T19:58:19.480Z,15.90
2022-10-18T20:06:10.928Z,15.80
2022-10-18T20:10:17.818Z,15.80
2022-10-18T20:14:01.761Z,15.80
2022-10-18T20:18:04.445Z,15.70
2022-10-18T20:21:52.200Z,15.70
2022-10-18T20:25:47.892Z,15.70
2022-10-18T20:29:36.944Z,15.70
2022-10-18T20:33:21.039Z,15.80
2022-10-18T20:37:06.549Z,15.80
2022-10-18T20:40:59.746Z,15.80
2022-10-18T20:44:43.748Z,15.80
2022-10-18T20:48:29.998Z,15.80
2022-10-18T20:52:12.456Z,15.80
2022-10-18T20:56:06.034Z,15.80
2022-10-18T20:59:57.048Z,15.80
2022-10-18T21:03:47.710Z,15.80
2022-10-18T21:07:39.672Z,15.80
2022-10-18T21:11:25.209Z,15.80
2022-10-18T21:34:47.006Z,15.80
2022-10-18T21:38:30.531Z,15.80
2022-10-18T21:42:14.639Z,15.80
2022-10-18T21:46:15.983Z,15.80
2022-10-18T21:50:03.205Z,15.80
2022-10-18T21:53:49.379Z,15.80
2022-10-18T21:57:32.264Z,15.80
2022-10-18T22:01:36.510Z,15.80
2022-10-18T22:05:18.676Z,15.80
2022-10-18T22:09:10.199Z,15.80
2022-10-18T22:12:53.533Z,15.80
2022-10-18T22:16:41.736Z,15.90
2022-10-18T22:20:27.751Z,15.80
2022-10-18T22:24:13.220Z,15.80
2022-10-18T22:28:04.554Z,15.80
2022-10-18T22:31:57.564Z,15.70
2022-10-18T22:35:47.999Z,15.70
2022-10-18T22:39:32.992Z,15.70
2022-10-18T22:43:22.412Z,15.60
2022-10-18T22:47:08.678Z,15.60
2022-10-18T22:50:56.452Z,15.60
2022-10-18T22:54:43.952Z,15.60
2022-10-18T22:58:26.520Z,15.50
2022-10-18T23:02:31.932Z,15.50
2022-10-18T23:06:38.136Z,15.50
2022-10-18T23:10:45.506Z,15.50
2022-10-18T23:14:33.247Z,15.50
2022-10-18T23:18:15.209Z,15.50
2022-10-18T23:21:58.605Z,15.50
2022-10-18T23:25:54.221Z,15.50
2022-10-18T23:29:36.815Z,15.50
2022-10-18T23:33:20.438Z,15.50
2022-10-18T23:37:02.414Z,15.40
2022-10-18T23:40:48.893Z,15.30
2022-10-18T23:44:31.362Z,15.30
2022-10-18T23:48:16.033Z,15.30
2022-10-18T23:52:11.178Z,15.30
2022-10-18T23:56:16.401Z,15.20
